createdAt,value
2022-12-23T00:01:03.825Z,9.40
2022-12-23T00:03:33.494Z,9.51
2022-12-23T00:06:02.271Z,9.41
2022-12-23T00:08:30.002Z,9.27
2022-12-23T00:10:58.326Z,9.39
2022-12-23T00:13:43.524Z,9.43
2022-12-23T00:16:15.012Z,9.46
2022-12-23T00:18:43.814Z,9.52
2022-12-23T00:21:13.756Z,9.38
2022-12-23T00:23:46.965Z,9.36
2022-12-23T00:26:16.705Z,9.32
2022-12-23T00:28:45.134Z,9.44
2022-12-23T00:31:14.874Z,9.39
2022-12-23T00:33:45.175Z,9.28
2022-12-23T00:36:14.950Z,9.48
2022-12-23T00:39:00.592Z,9.45
2022-12-23T00:41:45.913Z,9.28
2022-12-23T00:44:14.420Z,9.28
2022-12-23T00:46:43.399Z,9.30
2022-12-23T00:49:31.329Z,9.34
2022-12-23T00:51:59.983Z,9.15
2022-12-23T00:54:27.634Z,9.37
2022-12-23T00:56:55.390Z,9.31
2022-12-23T00:59:23.389Z,9.46
2022-12-23T01:02:10.453Z,9.45
2022-12-23T01:04:56.089Z,9.45
2022-12-23T01:07:25.108Z,9.43
2022-12-23T01:09:52.730Z,9.25
2022-12-23T01:12:20.821Z,9.36
2022-12-23T01:14:50.989Z,9.18
2022-12-23T01:17:21.310Z,9.37
2022-12-23T01:19:49.565Z,9.32
2022-12-23T01:22:17.160Z,9.33
2022-12-23T01:24:45.104Z,9.29
2022-12-23T01:27:12.677Z,9.41
2022-12-23T01:29:40.789Z,9.12
2022-12-23T01:32:08.453Z,9.43
2022-12-23T01:34:37.875Z,9.20
2022-12-23T01:37:05.915Z,9.42
2022-12-23T01:39:33.836Z,9.36
2022-12-23T01:42:19.672Z,9.35
2022-12-23T01:44:55.096Z,9.36
2022-12-23T01:47:33.092Z,9.36
2022-12-23T01:50:07.196Z,9.47
2022-12-23T01:52:39.667Z,9.34
2022-12-23T01:55:08.465Z,9.36
2022-12-23T01:57:38.511Z,9.41
2022-12-23T02:00:28.534Z,9.34
2022-12-23T02:03:14.235Z,9.06
2022-12-23T02:05:45.077Z,9.25
2022-12-23T02:08:33.268Z,9.10
2022-12-23T02:11:20.066Z,9.28
2022-12-23T02:14:17.621Z,9.37
2022-12-23T02:16:52.082Z,9.36
2022-12-23T02:19:37.195Z,9.63
2022-12-23T02:22:24.956Z,9.46
2022-12-23T02:25:13.331Z,9.41
2022-12-23T02:27:55.759Z,9.44
2022-12-23T02:30:29.335Z,9.44
2022-12-23T02:33:15.856Z,9.38
2022-12-23T02:35:49.642Z,9.45
2022-12-23T02:38:24.574Z,9.47
2022-12-23T02:41:00.765Z,9.60
2022-12-23T02:43:36.453Z,9.44
2022-12-23T02:46:13.140Z,9.65
2022-12-23T02:48:47.281Z,9.53
2022-12-23T02:51:18.257Z,9.50
2022-12-23T02:53:51.869Z,9.67
2022-12-23T02:56:22.451Z,9.63
2022-12-23T02:58:55.691Z,9.72
2022-12-23T03:01:27.666Z,9.40
2022-12-23T03:03:55.492Z,9.62
2022-12-23T03:06:27.134Z,9.64
2022-12-23T03:08:58.496Z,9.65
2022-12-23T03:11:40.016Z,9.84
2022-12-23T03:14:30.445Z,9.73
2022-12-23T03:17:11.704Z,9.68
2022-12-23T03:19:47.988Z,9.89
2022-12-23T03:22:24.939Z,9.69
2022-12-23T03:25:02.365Z,9.80
2022-12-23T03:27:34.912Z,9.91
2022-12-23T03:30:07.676Z,9.70
2022-12-23T03:32:42.092Z,9.78
2022-12-23T03:35:13.673Z,9.80
2022-12-23T03:37:45.793Z,9.94
2022-12-23T03:40:20.110Z,9.86
2022-12-23T03:42:51.277Z,10.06
2022-12-23T03:45:41.398Z,9.78
2022-12-23T03:48:14.629Z,9.96
2022-12-23T03:50:45.887Z,10.00
2022-12-23T03:53:18.430Z,10.02
2022-12-23T03:55:52.853Z,10.08
2022-12-23T03:58:31.817Z,10.11
2022-12-23T04:01:05.727Z,10.10
2022-12-23T04:03:42.769Z,10.03
2022-12-23T04:06:16.015Z,10.18
2022-12-23T04:08:45.552Z,10.13
2022-12-23T04:11:14.440Z,10.24
2022-12-23T04:13:42.182Z,10.28
2022-12-23T04:16:11.267Z,10.09
2022-12-23T04:18:40.394Z,10.28
2022-12-23T04:21:08.323Z,10.57
2022-12-23T04:23:35.968Z,10.48
2022-12-23T04:26:03.590Z,10.46
2022-12-23T04:28:31.195Z,10.63
2022-12-23T04:30:59.552Z,10.65
2022-12-23T04:33:27.207Z,10.63
2022-12-23T04:35:56.364Z,10.68
2022-12-23T04:38:24.593Z,10.52
2022-12-23T04:40:52.203Z,10.74
2022-12-23T04:43:19.842Z,10.65
2022-12-23T04:45:51.736Z,10.54
2022-12-23T04:48:19.799Z,10.56
2022-12-23T04:50:49.761Z,10.53
2022-12-23T04:53:18.720Z,10.77
2022-12-23T04:55:51.402Z,10.71
2022-12-23T04:58:21.920Z,10.61
2022-12-23T05:00:49.715Z,10.66
2022-12-23T05:03:17.477Z,10.66
2022-12-23T05:05:45.878Z,10.77
2022-12-23T05:08:14.257Z,10.79
2022-12-23T05:10:43.193Z,10.63
2022-12-23T05:13:11.424Z,10.57
2022-12-23T05:15:39.042Z,10.70
2022-12-23T05:18:06.816Z,10.65
2022-12-23T05:20:34.417Z,10.77
2022-12-23T05:23:02.079Z,10.35
2022-12-23T05:25:29.678Z,10.79
2022-12-23T05:27:59.386Z,10.78
2022-12-23T05:30:27.025Z,10.70
2022-12-23T05:32:56.000Z,10.79
2022-12-23T05:35:24.374Z,10.81
2022-12-23T05:37:52.463Z,10.78
2022-12-23T05:40:23.761Z,10.83
2022-12-23T05:42:58.847Z,10.77
2022-12-23T05:45:26.505Z,10.68
2022-12-23T05:47:54.157Z,10.81
2022-12-23T05:50:21.755Z,10.83
2022-12-23T05:52:50.179Z,10.93
2022-12-23T05:55:17.972Z,10.87
2022-12-23T05:57:46.732Z,10.68
2022-12-23T06:00:17.450Z,10.83
2022-12-23T06:02:51.776Z,10.98
2022-12-23T06:05:21.322Z,11.11
2022-12-23T06:07:50.122Z,10.69
2022-12-23T06:10:17.872Z,11.00
2022-12-23T06:12:45.915Z,10.89
2022-12-23T06:15:13.970Z,11.01
2022-12-23T06:17:43.448Z,10.95
2022-12-23T06:20:19.712Z,10.89
2022-12-23T06:22:48.942Z,11.02
2022-12-23T06:25:16.647Z,11.15
2022-12-23T06:27:45.067Z,11.21
2022-12-23T06:30:12.977Z,11.00
2022-12-23T06:32:40.943Z,11.02
2022-12-23T06:35:10.836Z,11.05
2022-12-23T06:37:38.892Z,11.14
2022-12-23T06:40:07.860Z,10.97
2022-12-23T06:42:35.841Z,10.90
2022-12-23T06:45:03.464Z,10.94
2022-12-23T06:47:31.479Z,10.88
2022-12-23T06:49:59.305Z,11.02
2022-12-23T06:52:28.856Z,11.04
2022-12-23T06:54:56.451Z,11.06
2022-12-23T06:57:24.098Z,11.14
2022-12-23T06:59:51.671Z,11.16
2022-12-23T07:02:19.775Z,11.24
2022-12-23T07:04:48.226Z,11.27
2022-12-23T07:07:15.920Z,11.31
2022-12-23T07:09:45.587Z,11.29
2022-12-23T07:12:13.163Z,11.21
2022-12-23T07:14:41.135Z,11.36
2022-12-23T07:17:08.834Z,11.23
2022-12-23T07:19:36.905Z,11.35
2022-12-23T07:22:04.808Z,11.24
2022-12-23T07:24:32.793Z,11.15
2022-12-23T07:27:01.712Z,11.20
2022-12-23T07:29:29.603Z,11.28
2022-12-23T07:31:57.235Z,11.20
2022-12-23T07:34:25.077Z,11.23
2022-12-23T07:36:52.730Z,11.33
2022-12-23T07:39:20.653Z,11.24
2022-12-23T07:41:48.375Z,11.40
2022-12-23T07:44:17.719Z,11.41
2022-12-23T07:46:45.635Z,11.23
2022-12-23T07:49:13.537Z,11.17
2022-12-23T07:51:41.125Z,11.33
2022-12-23T07:54:08.731Z,11.43
2022-12-23T07:56:36.437Z,11.34
2022-12-23T07:59:04.158Z,11.43
2022-12-23T08:01:33.223Z,11.66
2022-12-23T08:04:01.776Z,11.64
2022-12-23T08:06:29.428Z,11.55
2022-12-23T08:08:57.048Z,11.63
2022-12-23T08:11:24.660Z,11.62
2022-12-23T08:13:52.974Z,11.58
2022-12-23T08:16:20.635Z,11.51
2022-12-23T08:18:50.165Z,11.57
2022-12-23T08:21:19.471Z,11.59
2022-12-23T08:23:48.572Z,11.62
2022-12-23T08:26:18.189Z,11.46
2022-12-23T08:28:46.509Z,11.50
2022-12-23T08:31:16.412Z,11.68
2022-12-23T08:33:46.782Z,11.71
2022-12-23T08:36:23.039Z,11.71
2022-12-23T08:38:52.848Z,11.80
2022-12-23T08:41:22.957Z,11.75
2022-12-23T08:43:51.351Z,11.77
2022-12-23T08:46:19.405Z,11.92
2022-12-23T08:48:49.814Z,11.87
2022-12-23T08:51:21.454Z,11.82
2022-12-23T08:53:59.657Z,11.77
2022-12-23T08:56:30.519Z,11.85
2022-12-23T08:58:58.512Z,11.90
2022-12-23T09:01:28.469Z,11.81
2022-12-23T09:03:56.567Z,11.96
2022-12-23T09:06:30.047Z,11.90
2022-12-23T09:08:59.322Z,11.88
2022-12-23T09:11:29.026Z,11.94
2022-12-23T09:13:57.871Z,11.91
2022-12-23T09:16:25.760Z,11.92
2022-12-23T09:18:53.784Z,11.98
2022-12-23T09:21:23.488Z,11.90
2022-12-23T09:23:53.003Z,11.81
2022-12-23T09:26:23.628Z,11.91
2022-12-23T09:28:51.631Z,11.92
2022-12-23T09:31:20.120Z,11.87
2022-12-23T09:33:49.217Z,11.88
2022-12-23T09:36:17.234Z,12.08
2022-12-23T09:38:44.956Z,12.01
2022-12-23T09:41:27.600Z,12.04
2022-12-23T09:44:09.072Z,12.04
2022-12-23T09:46:48.634Z,12.02
2022-12-23T09:49:18.461Z,11.86
2022-12-23T09:51:48.696Z,11.91
2022-12-23T09:54:20.374Z,11.97
2022-12-23T09:57:01.711Z,11.85
2022-12-23T09:59:49.930Z,11.82
2022-12-23T10:02:26.687Z,11.85
2022-12-23T10:05:05.950Z,11.82
2022-12-23T10:07:38.348Z,11.83
2022-12-23T10:10:15.538Z,11.68
2022-12-23T10:12:48.551Z,11.69
2022-12-23T10:15:23.627Z,11.84
2022-12-23T10:17:55.778Z,11.78
2022-12-23T10:20:33.437Z,11.99
2022-12-23T10:23:01.321Z,11.84
2022-12-23T10:25:36.744Z,11.89
2022-12-23T10:28:05.919Z,11.90
2022-12-23T10:31:05.942Z,11.93
2022-12-23T10:33:37.197Z,11.98
2022-12-23T10:36:10.074Z,12.11
2022-12-23T10:38:48.927Z,12.20
2022-12-23T10:41:26.253Z,12.08
2022-12-23T10:44:15.426Z,12.11
2022-12-23T10:46:51.753Z,12.23
2022-12-23T10:49:31.166Z,12.20
2022-12-23T10:52:01.229Z,12.23
2022-12-23T10:54:33.313Z,12.40
2022-12-23T10:57:02.042Z,12.20
2022-12-23T10:59:34.980Z,12.31
2022-12-23T11:02:07.296Z,12.38
2022-12-23T11:04:37.900Z,12.24
2022-12-23T11:07:42.758Z,12.35
2022-12-23T11:10:02.072Z,12.20
2022-12-23T11:12:42.505Z,12.39
2022-12-23T11:15:29.424Z,12.38
2022-12-23T11:18:06.464Z,12.27
2022-12-23T11:20:35.512Z,12.33
2022-12-23T11:23:05.575Z,12.42
2022-12-23T11:25:36.857Z,12.30
2022-12-23T11:28:08.765Z,12.26
2022-12-23T11:30:55.163Z,12.45
2022-12-23T11:33:27.066Z,12.23
2022-12-23T11:36:04.728Z,12.29
2022-12-23T11:38:32.897Z,12.27
2022-12-23T11:41:01.483Z,12.11
2022-12-23T11:43:29.774Z,12.29
2022-12-23T11:46:18.147Z,12.35
2022-12-23T11:48:52.850Z,12.28
2022-12-23T11:51:26.813Z,12.20
2022-12-23T11:54:01.096Z,12.34
2022-12-23T11:56:30.623Z,12.32
2022-12-23T11:59:04.647Z,12.36
2022-12-23T12:01:33.798Z,12.28
2022-12-23T12:04:07.328Z,12.30
2022-12-23T12:06:35.703Z,12.28
2022-12-23T12:09:06.846Z,12.33
2022-12-23T12:11:40.043Z,12.42
2022-12-23T12:14:09.576Z,12.37
2022-12-23T12:16:51.671Z,12.47
2022-12-23T12:19:25.272Z,12.52
2022-12-23T12:21:58.033Z,12.48
2022-12-23T12:24:29.913Z,12.56
2022-12-23T12:27:03.203Z,12.39
2022-12-23T12:29:37.003Z,12.38
2022-12-23T12:32:15.477Z,12.28
2022-12-23T12:34:50.591Z,12.30
2022-12-23T12:37:26.905Z,12.45
2022-12-23T12:39:57.686Z,12.45
2022-12-23T12:42:30.684Z,12.19
2022-12-23T12:45:11.804Z,12.36
2022-12-23T12:47:56.793Z,12.32
2022-12-23T12:50:30.129Z,12.15
2022-12-23T12:53:01.646Z,12.28
2022-12-23T12:55:32.731Z,12.38
2022-12-23T12:58:02.473Z,12.34
2022-12-23T13:00:38.552Z,12.33
2022-12-23T13:03:24.037Z,12.16
2022-12-23T13:06:05.825Z,12.29
2022-12-23T13:08:55.879Z,12.14
2022-12-23T13:11:30.387Z,12.20
2022-12-23T13:14:06.577Z,12.18
2022-12-23T13:16:44.293Z,12.05
2022-12-23T13:19:27.576Z,12.05
2022-12-23T13:22:04.513Z,12.18
2022-12-23T13:24:39.225Z,12.13
2022-12-23T13:27:12.063Z,12.06
2022-12-23T13:29:58.276Z,12.13
2022-12-23T13:32:53.470Z,12.07
2022-12-23T13:35:35.514Z,12.12
2022-12-23T13:38:16.862Z,12.12
2022-12-23T13:40:54.006Z,12.16
2022-12-23T13:43:24.740Z,12.10
2022-12-23T13:45:55.265Z,12.16
2022-12-23T13:48:37.139Z,12.23
2022-12-23T13:51:13.973Z,12.21
2022-12-23T13:53:58.036Z,12.27
2022-12-23T13:56:37.147Z,12.15
2022-12-23T13:59:10.669Z,12.03
2022-12-23T14:01:46.629Z,12.04
2022-12-23T14:04:34.811Z,11.79
2022-12-23T14:07:06.570Z,11.88
2022-12-23T14:09:36.989Z,11.84
2022-12-23T14:12:22.031Z,11.99
2022-12-23T14:15:20.629Z,11.93
2022-12-23T14:18:02.749Z,12.00
2022-12-23T14:20:44.564Z,12.02
2022-12-23T14:23:28.887Z,11.85
2022-12-23T14:26:10.631Z,11.87
2022-12-23T14:28:56.462Z,11.94
2022-12-23T14:31:31.040Z,11.86
2022-12-23T14:34:05.338Z,11.88
2022-12-23T14:36:33.100Z,11.93
2022-12-23T14:39:32.876Z,11.98
2022-12-23T14:42:06.486Z,11.88
2022-12-23T14:44:49.388Z,11.95
2022-12-23T14:47:32.934Z,11.85
2022-12-23T14:50:34.542Z,11.68
2022-12-23T14:53:03.097Z,11.87
2022-12-23T14:56:09.450Z,11.93
2022-12-23T14:59:12.273Z,11.96
2022-12-23T15:01:42.712Z,11.99
2022-12-23T15:04:19.120Z,12.08
2022-12-23T15:06:49.355Z,11.96
2022-12-23T15:09:25.694Z,11.88
2022-12-23T15:11:54.863Z,11.78
2022-12-23T15:14:32.825Z,11.84
2022-12-23T15:17:00.930Z,12.01
2022-12-23T15:19:29.127Z,11.93
2022-12-23T15:22:17.856Z,11.96
2022-12-23T15:24:49.121Z,12.12
2022-12-23T15:27:27.322Z,12.11
2022-12-23T15:29:58.569Z,12.17
2022-12-23T15:32:28.545Z,12.18
2022-12-23T15:35:02.409Z,12.25
2022-12-23T15:37:32.509Z,12.26
2022-12-23T15:40:11.518Z,12.08
2022-12-23T15:42:48.125Z,11.95
2022-12-23T15:45:31.969Z,12.19
2022-12-23T15:47:59.779Z,12.09
2022-12-23T15:50:28.918Z,12.07
2022-12-23T15:53:06.392Z,12.20
2022-12-23T15:55:36.255Z,12.12
2022-12-23T15:58:05.009Z,12.10
2022-12-23T16:00:40.364Z,12.10
2022-12-23T16:03:22.893Z,12.13
2022-12-23T16:05:50.634Z,12.11
2022-12-23T16:08:30.114Z,12.13
2022-12-23T16:11:06.249Z,12.13
2022-12-23T16:13:34.033Z,12.05
2022-12-23T16:16:31.316Z,12.12
2022-12-23T16:18:59.055Z,12.21
2022-12-23T16:21:31.364Z,12.11
2022-12-23T16:24:00.855Z,12.17
2022-12-23T16:26:28.900Z,12.08
2022-12-23T16:29:00.454Z,12.10
2022-12-23T16:31:29.589Z,12.03
2022-12-23T16:33:59.273Z,12.19
2022-12-23T16:36:35.220Z,12.07
2022-12-23T16:39:20.077Z,12.16
2022-12-23T16:41:48.513Z,12.39
2022-12-23T16:44:16.489Z,12.28
2022-12-23T16:46:48.709Z,12.20
2022-12-23T16:49:17.703Z,12.30
2022-12-23T16:51:45.955Z,12.25
2022-12-23T16:54:16.007Z,12.13
2022-12-23T16:56:44.406Z,12.17
2022-12-23T16:59:11.981Z,12.19
2022-12-23T17:01:42.930Z,12.08
2022-12-23T17:04:12.453Z,12.16
2022-12-23T17:06:41.485Z,12.14
2022-12-23T17:09:09.641Z,12.11
2022-12-23T17:11:41.033Z,12.19
2022-12-23T17:14:16.103Z,12.10
2022-12-23T17:16:44.705Z,12.01
2022-12-23T17:19:14.123Z,12.02
2022-12-23T17:21:44.021Z,12.09
2022-12-23T17:24:17.155Z,12.23
2022-12-23T17:26:45.240Z,12.21
2022-12-23T17:29:13.537Z,12.19
2022-12-23T17:31:43.289Z,12.19
2022-12-23T17:34:17.123Z,12.08
2022-12-23T17:36:49.926Z,12.15
2022-12-23T17:39:18.188Z,12.24
2022-12-23T17:41:45.879Z,12.17
2022-12-23T17:44:15.648Z,12.24
2022-12-23T17:46:44.026Z,12.07
2022-12-23T17:49:12.425Z,12.14
2022-12-23T17:51:43.310Z,12.19
2022-12-23T17:54:21.287Z,12.27
2022-12-23T17:56:49.254Z,12.16
2022-12-23T17:59:16.825Z,12.14
2022-12-23T18:01:45.384Z,12.10
2022-12-23T18:04:13.073Z,12.03
2022-12-23T18:06:41.993Z,12.12
2022-12-23T18:09:09.565Z,12.09
2022-12-23T18:11:41.948Z,12.08
2022-12-23T18:14:16.352Z,12.16
2022-12-23T18:16:44.473Z,12.13
2022-12-23T18:19:17.450Z,12.14
2022-12-23T18:21:47.761Z,12.12
2022-12-23T18:24:15.788Z,12.21
2022-12-23T18:26:44.189Z,12.12
2022-12-23T18:29:11.790Z,12.08
2022-12-23T18:31:51.366Z,12.11
2022-12-23T18:34:20.488Z,12.10
2022-12-23T18:36:52.215Z,12.16
2022-12-23T18:39:19.990Z,12.01
2022-12-23T18:41:47.844Z,12.24
2022-12-23T18:44:20.435Z,12.18
2022-12-23T18:46:49.104Z,12.20
2022-12-23T18:49:17.259Z,12.23
2022-12-23T18:51:45.006Z,12.21
2022-12-23T18:54:16.077Z,12.26
2022-12-23T18:56:44.199Z,12.29
2022-12-23T18:59:16.581Z,12.31
2022-12-23T19:01:44.312Z,12.27
2022-12-23T19:04:11.936Z,12.25
2022-12-23T19:06:39.851Z,12.35
2022-12-23T19:09:08.309Z,12.42
2022-12-23T19:11:37.298Z,12.38
2022-12-23T19:14:05.297Z,12.43
2022-12-23T19:16:33.171Z,12.55
2022-12-23T19:19:01.206Z,12.38
2022-12-23T19:21:28.958Z,12.55
2022-12-23T19:23:58.352Z,12.44
2022-12-23T19:26:26.451Z,12.28
2022-12-23T19:28:56.004Z,12.31
2022-12-23T19:31:24.044Z,12.41
2022-12-23T19:33:52.314Z,12.30
2022-12-23T19:36:22.805Z,12.30
2022-12-23T19:38:52.007Z,12.35
2022-12-23T19:41:20.144Z,12.23
2022-12-23T19:43:48.731Z,12.30
2022-12-23T19:46:18.697Z,12.36
2022-12-23T19:48:51.472Z,12.41
2022-12-23T19:51:19.258Z,12.32
2022-12-23T19:53:53.014Z,12.26
2022-12-23T19:56:21.992Z,12.17
2022-12-23T19:58:50.940Z,12.24
2022-12-23T20:01:22.357Z,12.17
2022-12-23T20:03:52.223Z,12.17
2022-12-23T20:06:22.752Z,12.29
2022-12-23T20:08:54.906Z,12.24
2022-12-23T20:11:26.821Z,12.20
2022-12-23T20:13:55.402Z,12.46
2022-12-23T20:16:24.440Z,12.35
2022-12-23T20:18:53.003Z,12.34
2022-12-23T20:21:20.946Z,12.40
2022-12-23T20:23:49.055Z,12.27
2022-12-23T20:26:18.619Z,12.18
2022-12-23T20:28:46.893Z,12.33
2022-12-23T20:31:18.826Z,12.29
2022-12-23T20:33:50.628Z,12.06
2022-12-23T20:36:21.588Z,11.98
2022-12-23T20:38:50.125Z,11.89
2022-12-23T20:41:19.260Z,11.86
2022-12-23T20:44:02.663Z,11.83
2022-12-23T20:46:35.735Z,11.68
2022-12-23T20:49:05.021Z,11.60
2022-12-23T20:51:32.640Z,11.77
2022-12-23T20:54:01.155Z,12.06
2022-12-23T20:56:30.346Z,11.93
2022-12-23T20:59:03.068Z,12.27
2022-12-23T21:01:33.565Z,12.59
2022-12-23T21:04:03.857Z,12.48
2022-12-23T21:06:33.667Z,12.18
2022-12-23T21:09:05.217Z,12.31
2022-12-23T21:11:34.678Z,12.18
2022-12-23T21:14:06.200Z,11.87
2022-12-23T21:16:35.100Z,11.77
2022-12-23T21:19:04.053Z,11.75
2022-12-23T21:21:33.348Z,11.83
2022-12-23T21:24:04.251Z,12.00
2022-12-23T21:26:34.590Z,12.00
2022-12-23T21:29:03.778Z,12.04
2022-12-23T21:31:33.924Z,12.14
2022-12-23T21:34:01.881Z,12.17
2022-12-23T21:36:32.201Z,12.29
2022-12-23T21:39:02.149Z,12.27
2022-12-23T21:41:32.295Z,12.19
2022-12-23T21:44:01.054Z,12.29
2022-12-23T21:46:30.217Z,12.42
2022-12-23T21:48:58.976Z,12.30
2022-12-23T21:51:36.713Z,12.43
2022-12-23T21:54:09.944Z,12.20
2022-12-23T21:56:38.406Z,12.47
2022-12-23T21:59:08.308Z,12.09
2022-12-23T22:01:36.213Z,11.82
2022-12-23T22:04:03.970Z,11.81
2022-12-23T22:06:33.631Z,11.74
2022-12-23T22:09:01.204Z,11.50
2022-12-23T22:11:33.459Z,11.80
2022-12-23T22:14:02.545Z,11.60
2022-12-23T22:16:32.389Z,11.30
2022-12-23T22:19:01.351Z,11.28
2022-12-23T22:21:32.106Z,11.26
2022-12-23T22:24:00.827Z,11.22
2022-12-23T22:26:32.466Z,11.31
2022-12-23T22:29:01.628Z,11.50
2022-12-23T22:31:35.225Z,11.72
2022-12-23T22:34:03.246Z,11.73
2022-12-23T22:36:31.882Z,11.72
2022-12-23T22:39:01.459Z,11.77
2022-12-23T22:41:31.825Z,11.71
2022-12-23T22:44:00.336Z,11.55
2022-12-23T22:46:29.129Z,11.90
2022-12-23T22:48:58.609Z,11.84
2022-12-23T22:51:29.108Z,11.90
2022-12-23T22:53:57.539Z,11.44
2022-12-23T22:56:26.555Z,11.66
2022-12-23T22:58:55.787Z,11.65
2022-12-23T23:01:26.501Z,11.59
2022-12-23T23:03:57.209Z,11.50
2022-12-23T23:06:26.785Z,11.34
2022-12-23T23:08:54.536Z,11.60
2022-12-23T23:11:23.406Z,11.77
2022-12-23T23:13:51.009Z,11.60
2022-12-23T23:16:20.458Z,11.60
2022-12-23T23:18:48.140Z,11.71
2022-12-23T23:21:16.450Z,11.61
2022-12-23T23:23:44.177Z,11.66
2022-12-23T23:26:15.028Z,11.80
2022-12-23T23:28:43.688Z,11.86
2022-12-23T23:34:01.064Z,11.65
2022-12-23T23:36:29.216Z,11.51
2022-12-23T23:38:56.870Z,11.65
2022-12-23T23:41:24.528Z,11.77
2022-12-23T23:43:52.162Z,11.62
2022-12-23T23:46:20.156Z,11.47
2022-12-23T23:48:49.104Z,11.57
2022-12-23T23:51:18.172Z,11.41
2022-12-23T23:53:46.675Z,11.35
2022-12-23T23:56:14.330Z,11.37
2022-12-23T23:58:42.367Z,11.39
